Roland, Canada
Current Conditions -  °F | °C
As of 10:15 AM on Thursday 30 Oct 2014 (Local Time) from K96D Reporting Station
NA  
Wind Chill: 24°   Ceiling: NA
Heat Index: 36°   Visibility: 10mi
Dew Point: 27°   Wind: 23mph
Humidity: 70%   Direction: 350°N
Pressure: 30.31"   Gusts: 29mph
Location:  49.37°N, 97.95°W
Report Text: K96D 301515Z AUTO 35020G25KT 10SM 02/M03 A3031 RMK AO2
Loading
Personal Weather Stations






























Interactive Weather Map
Tropical Storm Tracking
New forecast layout! Learn more

10-Day Weather Forecast

Advertisements
Track Severe Weather on mobile